Time;durP1;ratioP1;P1;durP2;ratioP2;P2;SDS_P1;SDS_P2;PMS_P1;PMS_P2;Temp;Humidity;BMP_temperature;BMP_pressure;BME280_temperature;BME280_humidity;BME280_pressure;Samples;Min_cycle;Max_cycle;Signal;HPM_P1;HPM_P2
2022/10/01 00:01:46;;;;;;;1.30;0.50;;;22.50;61.60;;;;;;5026522;28;20093;-60
2022/10/01 00:04:13;;;;;;;1.33;0.50;;;22.50;61.50;;;;;;5037553;28;20057;-60
2022/10/01 00:06:39;;;;;;;1.42;0.40;;;22.50;61.50;;;;;;5025075;28;20041;-59
2022/10/01 00:09:05;;;;;;;1.88;0.30;;;22.50;61.30;;;;;;5024421;28;20026;-62
2022/10/01 00:11:32;;;;;;;0.52;0.40;;;22.50;61.30;;;;;;5028120;28;20021;-54
2022/10/01 00:14:00;;;;;;;3.47;0.40;;;22.50;61.50;;;;;;5031220;28;20120;-64
2022/10/01 00:16:27;;;;;;;3.90;0.50;;;22.50;61.70;;;;;;5022687;28;20034;-48
2022/10/01 00:18:53;;;;;;;0.57;0.40;;;22.50;62.50;;;;;;5025946;28;20038;-62
2022/10/01 00:21:21;;;;;;;4.10;0.60;;;22.50;61.80;;;;;;5022754;28;20067;-60
2022/10/01 00:23:51;;;;;;;0.80;0.40;;;22.50;62.50;;;;;;5020830;28;20044;-61
2022/10/01 00:26:20;;;;;;;1.77;0.68;;;22.50;61.70;;;;;;5032791;28;20026;-62
2022/10/01 00:28:51;;;;;;;1.55;0.45;;;22.50;61.70;;;;;;5029414;28;20057;-61
2022/10/01 00:31:17;;;;;;;3.35;0.65;;;22.50;61.70;;;;;;5025155;28;20034;-62
2022/10/01 00:33:43;;;;;;;0.70;0.50;;;22.50;61.70;;;;;;5041602;28;20038;-60
2022/10/01 00:36:10;;;;;;;3.55;0.63;;;22.50;61.70;;;;;;5025590;28;20120;-60
2022/10/01 00:38:37;;;;;;;1.03;0.60;;;22.60;61.90;;;;;;5025985;28;20036;-62
2022/10/01 00:41:03;;;;;;;1.55;0.70;;;22.60;61.90;;;;;;5025513;28;20370;-61
2022/10/01 00:43:32;;;;;;;2.63;0.70;;;22.60;61.90;;;;;;5017538;28;20109;-59
2022/10/01 00:46:01;;;;;;;1.00;0.57;;;22.60;61.90;;;;;;5030503;28;20049;-61
2022/10/01 00:48:28;;;;;;;2.75;0.73;;;22.60;61.80;;;;;;5033471;28;20057;-59
2022/10/01 00:50:54;;;;;;;1.60;0.50;;;22.50;61.80;;;;;;5018494;28;20390;-57
2022/10/01 00:53:21;;;;;;;12.97;0.90;;;22.60;61.90;;;;;;5023543;28;20034;-60
2022/10/01 00:55:50;;;;;;;4.20;0.80;;;22.50;62.10;;;;;;5014557;28;20041;-65
2022/10/01 00:58:17;;;;;;;4.50;0.70;;;22.60;62.00;;;;;;5019057;28;20044;-65
2022/10/01 01:00:43;;;;;;;5.72;1.10;;;22.60;62.00;;;;;;5018129;28;20086;-43
2022/10/01 01:03:13;;;;;;;3.03;0.60;;;22.60;62.10;;;;;;5023228;28;20045;-38
2022/10/01 01:05:40;;;;;;;4.25;0.73;;;22.60;62.10;;;;;;5021065;28;20026;-44
2022/10/01 01:08:06;;;;;;;1.65;0.70;;;22.60;62.00;;;;;;5021008;28;20367;-42
2022/10/01 01:10:51;;;;;;;7.28;1.17;;;22.60;62.00;;;;;;5020313;28;20882;-47
2022/10/01 01:13:23;;;;;;;5.25;0.88;;;22.60;62.40;;;;;;5032986;28;20056;-40
2022/10/01 01:16:15;;;;;;;4.45;0.90;;;22.60;62.70;;;;;;5017268;28;20072;-40
2022/10/01 01:18:58;;;;;;;3.00;0.80;;;22.60;62.60;;;;;;5018157;28;20094;-39
2022/10/01 01:21:31;;;;;;;6.72;0.68;;;22.60;62.50;;;;;;5020554;28;20037;-39
2022/10/01 01:23:57;;;;;;;2.25;0.60;;;22.60;62.50;;;;;;5020423;28;20037;-39
2022/10/01 01:26:28;;;;;;;1.15;0.60;;;22.60;62.40;;;;;;5017435;28;20075;-38
2022/10/01 01:28:58;;;;;;;1.50;0.60;;;22.60;62.30;;;;;;5018467;28;20060;-39
2022/10/01 01:31:31;;;;;;;0.63;0.47;;;22.60;62.30;;;;;;5017140;28;20029;-38
2022/10/01 01:33:57;;;;;;;2.45;0.70;;;22.60;63.00;;;;;;5012601;28;20080;-38
2022/10/01 01:36:30;;;;;;;2.00;0.68;;;22.60;62.20;;;;;;5012205;28;20141;-37
2022/10/01 01:39:03;;;;;;;1.38;0.60;;;22.60;62.20;;;;;;5011879;28;20034;-37
2022/10/01 01:41:32;;;;;;;2.55;0.60;;;22.60;62.20;;;;;;5011173;28;20141;-37
2022/10/01 01:43:59;;;;;;;1.10;0.40;;;22.60;62.20;;;;;;5040562;28;20030;-38
2022/10/01 01:46:32;;;;;;;1.35;0.50;;;22.60;62.10;;;;;;5008013;28;20045;-38
2022/10/01 01:49:03;;;;;;;1.63;0.60;;;22.60;62.00;;;;;;5007147;28;20025;-38
2022/10/01 01:51:38;;;;;;;1.35;0.50;;;22.60;62.00;;;;;;5006229;28;20038;-38
2022/10/01 01:54:04;;;;;;;1.23;0.43;;;22.60;61.90;;;;;;5010109;28;20026;-38
2022/10/01 01:56:31;;;;;;;1.05;0.50;;;22.60;62.00;;;;;;5007163;28;20058;-38
2022/10/01 01:58:59;;;;;;;1.23;0.40;;;22.60;61.90;;;;;;5004148;28;20038;-38
2022/10/01 02:01:36;;;;;;;0.80;0.40;;;22.60;61.90;;;;;;5005767;28;20049;-38
2022/10/01 02:04:09;;;;;;;0.57;0.30;;;22.60;61.90;;;;;;5012601;28;20075;-39
2022/10/01 02:06:46;;;;;;;1.00;0.57;;;22.60;61.90;;;;;;5011782;28;20041;-39
2022/10/01 02:09:30;;;;;;;1.00;0.43;;;22.60;61.90;;;;;;5014037;28;20037;-36
2022/10/01 02:12:06;;;;;;;1.08;0.43;;;22.60;61.80;;;;;;5015874;28;20034;-38
2022/10/01 02:14:37;;;;;;;0.38;0.38;;;22.60;61.90;;;;;;5020747;28;20124;-38
2022/10/01 02:17:13;;;;;;;0.40;0.30;;;22.60;61.90;;;;;;5018401;28;20032;-37
2022/10/01 02:19:48;;;;;;;0.65;0.50;;;22.60;61.80;;;;;;5018819;28;20716;-37
2022/10/01 02:22:41;;;;;;;0.70;0.50;;;22.60;61.90;;;;;;5019157;28;20077;-38
2022/10/01 02:25:08;;;;;;;0.55;0.35;;;22.60;61.80;;;;;;5017932;28;20073;-38
2022/10/01 02:27:57;;;;;;;0.43;0.30;;;22.60;61.80;;;;;;5021881;28;20810;-38
2022/10/01 02:30:24;;;;;;;0.68;0.28;;;22.60;61.80;;;;;;5017162;28;20521;-40
2022/10/01 02:32:50;;;;;;;0.98;0.43;;;22.60;61.80;;;;;;5021286;28;20049;-39
2022/10/01 02:35:17;;;;;;;0.50;0.30;;;22.60;61.70;;;;;;5020412;28;20034;-39
2022/10/01 02:37:44;;;;;;;0.52;0.30;;;22.60;61.80;;;;;;5019378;28;20057;-39
2022/10/01 02:40:14;;;;;;;0.50;0.32;;;22.60;61.80;;;;;;5017330;28;20058;-38
2022/10/01 02:42:46;;;;;;;0.60;0.30;;;22.60;61.80;;;;;;5019241;28;20041;-38
2022/10/01 02:45:12;;;;;;;0.40;0.30;;;22.60;61.70;;;;;;5021683;28;20026;-37
2022/10/01 02:47:40;;;;;;;0.70;0.30;;;22.60;61.80;;;;;;5018584;28;20513;-38
2022/10/01 02:50:07;;;;;;;0.82;0.30;;;22.60;61.90;;;;;;5018681;28;20062;-38
2022/10/01 02:52:46;;;;;;;0.60;0.28;;;22.60;61.90;;;;;;5018945;28;20112;-38
2022/10/01 02:55:41;;;;;;;4.00;0.40;;;22.60;61.90;;;;;;5019611;28;20033;-39
2022/10/01 02:58:08;;;;;;;1.15;0.30;;;22.60;62.10;;;;;;4929273;29;20047;-38
2022/10/01 03:00:34;;;;;;;0.52;0.30;;;22.50;61.90;;;;;;4926263;29;20063;-40
2022/10/01 03:03:00;;;;;;;1.10;0.30;;;22.60;61.90;;;;;;4941636;29;20039;-42
2022/10/01 03:05:26;;;;;;;0.20;0.20;;;22.50;61.80;;;;;;4940591;29;20049;-42
2022/10/01 03:07:53;;;;;;;0.40;0.30;;;22.50;61.80;;;;;;4943462;29;20044;-41
2022/10/01 03:10:19;;;;;;;1.55;0.30;;;22.50;61.80;;;;;;4926035;29;20457;-42
2022/10/01 03:12:45;;;;;;;0.65;0.40;;;22.50;61.80;;;;;;4940393;29;20028;-40
2022/10/01 03:15:12;;;;;;;0.88;0.40;;;22.50;61.80;;;;;;4943558;29;20066;-40
2022/10/01 03:17:38;;;;;;;2.20;0.30;;;22.50;61.80;;;;;;4938899;29;20059;-40
2022/10/01 03:20:05;;;;;;;0.30;0.30;;;22.50;61.70;;;;;;4947569;29;20062;-40
2022/10/01 03:22:32;;;;;;;0.40;0.40;;;22.50;61.70;;;;;;4941143;29;20047;-40
2022/10/01 03:25:18;;;;;;;1.15;0.38;;;22.50;61.70;;;;;;4936872;28;21899;-40
2022/10/01 03:27:45;;;;;;;0.55;0.40;;;22.50;61.70;;;;;;4859044;29;20965;-40
2022/10/01 03:30:11;;;;;;;0.60;0.40;;;22.50;61.70;;;;;;4859093;29;20053;-40
2022/10/01 03:32:37;;;;;;;0.30;0.30;;;22.50;61.80;;;;;;4860749;29;20053;-38
2022/10/01 03:35:04;;;;;;;0.68;0.50;;;22.50;61.80;;;;;;4917155;29;20055;-37
2022/10/01 03:37:30;;;;;;;2.27;0.50;;;22.50;61.70;;;;;;4942127;29;20049;-38
2022/10/01 03:39:56;;;;;;;1.10;0.43;;;22.50;61.70;;;;;;4938418;29;20074;-40
2022/10/01 03:42:22;;;;;;;0.40;0.40;;;22.50;61.80;;;;;;4940639;29;20060;-39
2022/10/01 03:44:48;;;;;;;0.60;0.32;;;22.50;61.70;;;;;;4935475;28;20052;-38
2022/10/01 03:47:14;;;;;;;0.40;0.40;;;22.50;61.70;;;;;;4939806;29;20027;-39
2022/10/01 03:49:40;;;;;;;0.60;0.50;;;22.50;61.80;;;;;;4936879;29;20032;-39
2022/10/01 03:52:07;;;;;;;0.60;0.50;;;22.50;61.70;;;;;;4946410;29;20054;-38
2022/10/01 03:54:33;;;;;;;0.30;0.30;;;22.50;61.70;;;;;;4945360;29;20028;-39
2022/10/01 03:56:59;;;;;;;0.55;0.55;;;22.50;61.80;;;;;;4945810;29;20073;-39
2022/10/01 03:59:28;;;;;;;0.60;0.40;;;22.50;61.70;;;;;;4944234;29;20086;-41
2022/10/01 04:01:54;;;;;;;1.00;0.68;;;22.40;61.70;;;;;;4946221;29;20035;-40
2022/10/01 04:04:20;;;;;;;0.60;0.60;;;22.40;61.70;;;;;;4964607;28;20034;-39
2022/10/01 04:06:46;;;;;;;2.05;0.75;;;22.40;61.70;;;;;;5025081;28;20121;-41
2022/10/01 04:09:12;;;;;;;0.88;0.57;;;22.40;61.70;;;;;;5023396;28;20118;-40
2022/10/01 04:11:38;;;;;;;0.70;0.57;;;22.40;61.70;;;;;;5022538;28;20410;-41
2022/10/01 04:14:05;;;;;;;0.98;0.55;;;22.40;61.60;;;;;;5021478;28;20054;-40
2022/10/01 04:16:33;;;;;;;0.45;0.40;;;22.40;61.70;;;;;;5022709;28;20699;-40
2022/10/01 04:19:00;;;;;;;0.30;0.30;;;22.40;61.70;;;;;;5016904;28;20038;-39
2022/10/01 04:21:26;;;;;;;1.00;0.60;;;22.40;61.70;;;;;;5014136;28;20124;-39
2022/10/01 04:23:52;;;;;;;0.95;0.50;;;22.40;61.70;;;;;;5015385;28;20034;-40
2022/10/01 04:26:18;;;;;;;3.17;0.70;;;22.40;61.70;;;;;;5014705;28;20037;-39
2022/10/01 04:28:45;;;;;;;1.88;0.40;;;22.40;61.70;;;;;;5013485;28;20068;-39
2022/10/01 04:31:24;;;;;;;;;;;22.40;61.60;;;;;;5019817;28;20565;-39
2022/10/01 04:33:51;;;;;;;0.82;0.80;;;22.40;61.70;;;;;;5020976;28;19921;-40
2022/10/01 04:36:17;;;;;;;;;;;22.40;61.60;;;;;;5021952;28;20121;-40
2022/10/01 04:38:43;;;;;;;0.70;0.60;;;22.30;61.60;;;;;;5022085;28;19941;-39
2022/10/01 04:41:09;;;;;;;0.52;0.50;;;22.30;61.60;;;;;;5020648;28;20077;-40
2022/10/01 04:43:35;;;;;;;0.90;0.70;;;22.30;61.60;;;;;;5021139;28;20703;-38
2022/10/01 04:46:02;;;;;;;0.95;0.80;;;22.30;61.60;;;;;;5021856;28;20037;-37
2022/10/01 04:48:28;;;;;;;1.10;0.90;;;22.30;61.50;;;;;;5021221;28;20030;-38
2022/10/01 04:50:54;;;;;;;0.90;0.73;;;22.30;61.60;;;;;;5020319;28;20041;-38
2022/10/01 04:53:20;;;;;;;1.95;0.80;;;22.30;61.60;;;;;;5023330;28;20026;-37
2022/10/01 04:55:46;;;;;;;0.80;0.60;;;22.30;61.60;;;;;;5021124;28;20026;-38
2022/10/01 04:58:12;;;;;;;1.15;0.80;;;22.30;61.60;;;;;;5021006;28;20030;-37
2022/10/01 05:00:38;;;;;;;1.10;1.00;;;22.30;61.70;;;;;;5021927;28;20045;-39
2022/10/01 05:03:04;;;;;;;0.95;0.80;;;22.30;61.70;;;;;;5022171;28;20034;-38
2022/10/01 05:05:33;;;;;;;0.90;0.80;;;22.30;61.70;;;;;;5021497;28;20041;-39
2022/10/01 05:08:00;;;;;;;1.45;0.77;;;22.20;61.60;;;;;;5020457;28;20033;-38
2022/10/01 05:10:26;;;;;;;0.80;0.70;;;22.20;61.60;;;;;;5020447;28;20026;-38
2022/10/01 05:12:53;;;;;;;0.87;0.70;;;22.20;61.60;;;;;;5020957;28;20263;-38
2022/10/01 05:15:19;;;;;;;1.60;0.93;;;22.20;61.60;;;;;;5018730;28;20680;-36
2022/10/01 05:17:45;;;;;;;1.10;0.80;;;22.20;61.60;;;;;;5027549;28;20057;-37
2022/10/01 05:20:17;;;;;;;0.63;0.63;;;22.20;61.60;;;;;;5021184;28;20037;-38
2022/10/01 05:22:45;;;;;;;1.00;0.80;;;22.20;61.60;;;;;;5020979;28;20032;-39
2022/10/01 05:25:12;;;;;;;0.90;0.70;;;22.20;61.60;;;;;;5020816;28;20036;-40
2022/10/01 05:27:39;;;;;;;0.50;0.50;;;22.20;61.60;;;;;;5021132;28;20089;-39
2022/10/01 05:30:05;;;;;;;;;;;22.20;61.60;;;;;;5013155;28;20489;-40
2022/10/01 05:32:31;;;;;;;1.35;1.00;;;22.20;61.60;;;;;;5012797;28;20004;-39
2022/10/01 05:34:57;;;;;;;0.73;0.63;;;22.10;61.50;;;;;;5013911;28;20117;-40
2022/10/01 05:37:23;;;;;;;0.80;0.80;;;22.10;61.50;;;;;;5012472;28;20140;-40
2022/10/01 05:39:50;;;;;;;1.02;0.70;;;22.10;61.50;;;;;;5007872;28;20049;-40
2022/10/01 05:42:16;;;;;;;0.90;0.80;;;22.10;61.50;;;;;;5005964;28;20057;-39
2022/10/01 05:44:45;;;;;;;0.75;0.60;;;22.10;61.50;;;;;;5006957;28;20503;-39
2022/10/01 05:47:13;;;;;;;1.08;0.73;;;22.10;61.50;;;;;;5007696;28;20077;-39
2022/10/01 05:49:43;;;;;;;0.57;0.50;;;22.10;61.50;;;;;;5007568;28;20037;-38
2022/10/01 05:52:13;;;;;;;0.95;0.60;;;22.10;61.50;;;;;;5011022;28;20040;-39
2022/10/01 05:54:39;;;;;;;1.00;0.68;;;22.10;62.30;;;;;;5008532;28;20033;-39
2022/10/01 05:57:06;;;;;;;0.80;0.60;;;22.00;61.50;;;;;;5008698;28;20049;-38
2022/10/01 05:59:33;;;;;;;1.02;0.60;;;22.00;61.50;;;;;;5007551;28;20041;-39
2022/10/01 06:01:59;;;;;;;1.40;0.80;;;22.00;61.60;;;;;;5013531;28;20030;-40
2022/10/01 06:04:25;;;;;;;0.60;0.50;;;22.00;61.50;;;;;;5013818;28;20096;-39
2022/10/01 06:06:55;;;;;;;0.73;0.60;;;22.00;61.50;;;;;;5012853;28;20054;-39
2022/10/01 06:09:21;;;;;;;0.63;0.63;;;22.00;61.50;;;;;;5013285;28;20068;-39
2022/10/01 06:11:47;;;;;;;0.80;0.57;;;22.00;61.50;;;;;;5011974;28;20038;-39
2022/10/01 06:14:14;;;;;;;0.80;0.60;;;22.00;61.50;;;;;;5011060;28;20060;-41
2022/10/01 06:16:40;;;;;;;0.80;0.68;;;22.00;61.50;;;;;;5011391;28;20037;-40
2022/10/01 06:19:06;;;;;;;0.60;0.57;;;22.00;61.50;;;;;;5011010;28;20045;-40
2022/10/01 06:21:32;;;;;;;0.70;0.70;;;22.00;61.60;;;;;;5013260;28;20109;-40
2022/10/01 06:23:58;;;;;;;0.60;0.60;;;21.90;61.50;;;;;;5011121;28;20105;-40
2022/10/01 06:26:24;;;;;;;0.47;0.30;;;21.90;61.50;;;;;;5014889;28;20061;-40
2022/10/01 06:28:51;;;;;;;0.70;0.57;;;21.90;61.50;;;;;;5011346;28;20054;-40
2022/10/01 06:31:18;;;;;;;0.50;0.40;;;21.90;61.50;;;;;;5005903;28;20057;-39
2022/10/01 06:33:44;;;;;;;0.60;0.50;;;21.90;61.50;;;;;;5008089;28;20053;-40
2022/10/01 06:36:10;;;;;;;0.60;0.50;;;21.90;61.60;;;;;;5008304;28;20049;-39
2022/10/01 06:38:36;;;;;;;0.60;0.40;;;21.90;61.70;;;;;;5010614;28;20072;-40
2022/10/01 06:41:05;;;;;;;0.43;0.43;;;21.90;61.70;;;;;;5012201;28;20100;-39
2022/10/01 06:43:31;;;;;;;0.60;0.50;;;21.90;61.80;;;;;;5012327;28;20034;-39
2022/10/01 06:46:01;;;;;;;0.40;0.40;;;21.80;61.80;;;;;;5013554;28;20030;-40
2022/10/01 06:48:30;;;;;;;0.40;0.40;;;21.80;61.80;;;;;;5010692;28;20034;-39
2022/10/01 06:50:56;;;;;;;0.70;0.50;;;21.80;61.80;;;;;;5012956;28;20121;-41
2022/10/01 06:53:22;;;;;;;0.68;0.55;;;21.80;61.80;;;;;;5015965;28;20094;-39
2022/10/01 06:55:48;;;;;;;0.40;0.40;;;21.80;61.80;;;;;;5013051;28;20038;-40
2022/10/01 06:58:19;;;;;;;0.30;0.30;;;21.80;61.80;;;;;;5010881;28;20049;-40
2022/10/01 07:00:46;;;;;;;0.45;0.32;;;21.80;61.80;;;;;;5011945;28;20105;-40
2022/10/01 07:03:21;;;;;;;0.40;0.40;;;21.80;61.80;;;;;;5009674;28;20033;-39
2022/10/01 07:05:48;;;;;;;0.50;0.40;;;21.80;61.90;;;;;;5011211;28;20375;-38
2022/10/01 07:08:14;;;;;;;0.40;0.40;;;21.80;61.80;;;;;;5008859;28;20561;-39
2022/10/01 07:10:40;;;;;;;0.35;0.22;;;21.70;61.70;;;;;;5009759;28;20287;-39
2022/10/01 07:13:08;;;;;;;0.32;0.32;;;21.70;61.70;;;;;;5008161;28;20026;-39
2022/10/01 07:15:34;;;;;;;1.13;0.40;;;21.70;61.70;;;;;;5012218;28;20067;-39
2022/10/01 07:18:00;;;;;;;0.50;0.40;;;21.70;61.80;;;;;;5012222;28;20030;-39
2022/10/01 07:20:26;;;;;;;0.53;0.40;;;21.70;61.90;;;;;;5010336;28;20037;-39
2022/10/01 07:22:56;;;;;;;0.30;0.30;;;21.70;61.90;;;;;;5011571;28;20030;-39
2022/10/01 07:25:24;;;;;;;0.50;0.40;;;21.70;61.90;;;;;;5016874;28;20056;-39
2022/10/01 07:27:54;;;;;;;0.40;0.30;;;21.70;62.70;;;;;;5016847;28;20769;-39
2022/10/01 07:30:22;;;;;;;0.70;0.40;;;21.70;62.00;;;;;;5019240;28;20091;-40
2022/10/01 07:32:48;;;;;;;1.15;0.40;;;21.70;61.90;;;;;;5022705;28;20089;-41
2022/10/01 07:35:15;;;;;;;0.57;0.40;;;21.60;61.90;;;;;;5026359;28;20156;-41
2022/10/01 07:37:41;;;;;;;0.33;0.33;;;21.60;61.90;;;;;;5023520;28;20041;-41
2022/10/01 07:40:08;;;;;;;0.40;0.40;;;21.60;61.90;;;;;;5022240;28;20049;-41
2022/10/01 07:42:34;;;;;;;2.13;0.60;;;21.60;62.60;;;;;;5022546;28;20026;-40
2022/10/01 07:45:03;;;;;;;1.90;0.30;;;21.60;62.00;;;;;;5022900;28;20034;-40
2022/10/01 07:47:29;;;;;;;1.17;0.40;;;21.60;62.10;;;;;;5021900;28;20088;-39
2022/10/01 07:49:55;;;;;;;0.70;0.45;;;21.60;62.20;;;;;;5021943;28;20034;-47
2022/10/01 07:52:21;;;;;;;3.97;0.65;;;21.60;62.20;;;;;;5023936;28;20058;-39
2022/10/01 07:54:47;;;;;;;0.93;0.50;;;21.60;62.30;;;;;;5024648;28;20393;-39
2022/10/01 07:57:14;;;;;;;3.23;0.50;;;21.60;62.30;;;;;;5022957;28;20036;-40
2022/10/01 07:59:40;;;;;;;2.57;0.50;;;21.60;62.20;;;;;;5019767;28;20046;-39
2022/10/01 08:02:16;;;;;;;2.25;0.47;;;21.60;62.50;;;;;;5023382;28;20482;-52
2022/10/01 08:07:26;;;;;;;3.33;0.90;;;21.50;62.30;;;;;;5027208;28;20120;-40
2022/10/01 08:09:53;;;;;;;4.72;0.98;;;21.50;62.60;;;;;;5055818;28;20026;-39
2022/10/01 08:12:19;;;;;;;5.35;0.95;;;21.50;62.60;;;;;;5028328;28;20692;-40
2022/10/01 08:14:46;;;;;;;2.30;0.93;;;21.50;62.60;;;;;;5031661;28;20029;-39
2022/10/01 08:17:13;;;;;;;1.40;0.68;;;21.50;62.50;;;;;;5023544;28;20022;-39
2022/10/01 08:19:39;;;;;;;2.28;1.20;;;21.50;62.40;;;;;;5024844;28;20025;-40
2022/10/01 08:22:06;;;;;;;3.40;0.95;;;21.50;62.30;;;;;;5026927;28;20039;-39
2022/10/01 08:24:35;;;;;;;2.35;1.00;;;21.60;62.30;;;;;;5017032;28;20018;-38
2022/10/01 08:27:01;;;;;;;1.83;0.85;;;21.50;62.20;;;;;;5018414;28;20044;-38
2022/10/01 08:29:27;;;;;;;1.75;0.80;;;21.50;61.90;;;;;;5017044;28;20058;-39
2022/10/01 08:31:53;;;;;;;3.00;0.82;;;21.50;61.90;;;;;;5017442;28;20048;-39
2022/10/01 08:34:19;;;;;;;2.05;1.00;;;21.50;61.90;;;;;;5016893;28;20034;-39
2022/10/01 08:36:50;;;;;;;3.35;0.90;;;21.50;61.90;;;;;;5015227;28;20061;-38
2022/10/01 08:39:17;;;;;;;1.65;0.90;;;21.50;61.70;;;;;;5014392;28;20037;-39
2022/10/01 08:41:46;;;;;;;2.03;1.00;;;21.50;61.50;;;;;;5032406;28;20045;-43
2022/10/01 08:44:20;;;;;;;4.60;0.80;;;21.40;61.40;;;;;;5014618;28;20026;-37
2022/10/01 08:46:46;;;;;;;1.42;0.80;;;21.40;61.50;;;;;;5016683;28;20045;-38
2022/10/01 08:49:24;;;;;;;2.67;0.85;;;21.40;61.30;;;;;;5017021;28;20033;-37
2022/10/01 08:52:02;;;;;;;1.63;0.85;;;21.40;61.20;;;;;;5016799;28;20038;-37
2022/10/01 08:54:56;;;;;;;1.35;0.63;;;21.40;61.20;;;;;;5022519;28;20029;-38
2022/10/01 08:57:24;;;;;;;2.40;0.80;;;21.30;61.10;;;;;;5025959;28;20144;-38
2022/10/01 08:59:57;;;;;;;2.65;0.65;;;21.30;61.10;;;;;;5027365;28;20040;-37
2022/10/01 09:02:40;;;;;;;1.10;0.75;;;21.30;61.00;;;;;;5022589;28;20029;-37
2022/10/01 09:05:06;;;;;;;2.65;0.90;;;21.30;60.90;;;;;;5038052;28;20397;-37
2022/10/01 09:07:39;;;;;;;2.05;0.93;;;21.30;61.00;;;;;;5024493;28;20057;-36
2022/10/01 09:10:26;;;;;;;1.17;0.73;;;21.30;60.90;;;;;;5023586;28;20042;-37
2022/10/01 09:13:21;;;;;;;1.17;0.85;;;21.20;60.80;;;;;;5022385;28;20037;-38
2022/10/01 09:15:56;;;;;;;1.70;0.70;;;21.20;60.80;;;;;;5023530;28;20041;-38
2022/10/01 09:18:43;;;;;;;1.52;0.60;;;21.20;60.80;;;;;;5018588;28;20030;-38
2022/10/01 09:21:32;;;;;;;1.63;0.60;;;21.20;60.70;;;;;;5022602;28;20042;-37
2022/10/01 09:24:03;;;;;;;1.10;0.70;;;21.20;60.70;;;;;;5010863;28;20635;-38
2022/10/01 09:26:30;;;;;;;1.50;0.70;;;21.10;60.70;;;;;;5015533;28;20054;-37
2022/10/01 09:28:58;;;;;;;1.35;0.82;;;21.10;60.70;;;;;;5011787;28;20483;-38
2022/10/01 09:31:36;;;;;;;1.02;0.80;;;21.10;60.70;;;;;;5029562;28;20065;-38
2022/10/01 09:34:05;;;;;;;;;;;21.10;60.70;;;;;;5013841;28;20029;-38
2022/10/01 09:36:38;;;;;;;1.25;0.80;;;21.10;60.60;;;;;;5046155;28;19944;-37
2022/10/01 09:39:22;;;;;;;1.42;0.70;;;21.10;60.70;;;;;;5016401;28;20661;-37
2022/10/01 09:41:49;;;;;;;1.15;0.60;;;21.00;60.60;;;;;;5012693;28;20038;-37
2022/10/01 09:44:26;;;;;;;1.05;0.80;;;21.00;60.70;;;;;;5015213;28;20026;-38
2022/10/01 09:46:54;;;;;;;;;;;21.00;60.60;;;;;;5016136;28;20037;-38
2022/10/01 09:49:33;;;;;;;2.67;0.85;;;21.00;60.50;;;;;;5013914;28;20377;-38
2022/10/01 09:52:14;;;;;;;0.85;0.52;;;21.00;60.50;;;;;;5014367;28;20044;-38
2022/10/01 09:55:06;;;;;;;1.05;0.57;;;21.00;60.50;;;;;;5020571;28;20454;-38
2022/10/01 09:57:42;;;;;;;0.73;0.63;;;20.90;60.50;;;;;;5005203;28;20034;-38
2022/10/01 10:00:19;;;;;;;0.75;0.65;;;20.90;60.50;;;;;;5010120;28;20042;-37
2022/10/01 10:02:46;;;;;;;0.80;0.60;;;20.90;60.50;;;;;;5020794;28;20022;-36
2022/10/01 10:05:13;;;;;;;;;;;20.90;60.50;;;;;;5022075;28;20064;-36
2022/10/01 10:07:43;;;;;;;1.50;0.70;;;20.90;60.40;;;;;;5040235;28;19913;-36
2022/10/01 10:10:34;;;;;;;0.73;0.60;;;20.90;60.50;;;;;;5035264;28;20026;-37
2022/10/01 10:13:12;;;;;;;1.75;0.55;;;20.90;60.50;;;;;;5021901;28;20032;-35
2022/10/01 10:15:42;;;;;;;2.20;0.65;;;20.90;60.70;;;;;;5023502;28;20582;-37
2022/10/01 10:18:15;;;;;;;0.73;0.60;;;20.80;60.60;;;;;;5012704;28;20042;-37
2022/10/01 10:20:42;;;;;;;2.45;0.60;;;20.80;60.60;;;;;;5034605;28;20120;-38
2022/10/01 10:23:16;;;;;;;0.93;0.65;;;20.80;60.60;;;;;;5019632;28;20026;-38
2022/10/01 10:25:42;;;;;;;1.63;0.70;;;20.80;60.60;;;;;;5012588;28;20026;-37
2022/10/01 10:28:22;;;;;;;1.58;0.70;;;20.80;60.70;;;;;;5015058;28;20049;-38
2022/10/01 10:30:52;;;;;;;2.08;0.50;;;20.80;60.60;;;;;;5016748;28;20042;-37
2022/10/01 10:33:21;;;;;;;0.65;0.60;;;20.80;60.70;;;;;;5014000;28;20030;-38
2022/10/01 10:36:04;;;;;;;0.85;0.55;;;20.80;60.70;;;;;;5013989;28;20087;-41
2022/10/01 10:38:32;;;;;;;2.08;0.50;;;20.70;60.60;;;;;;5030785;28;20029;-37
2022/10/01 10:40:57;;;;;;;;;;;20.70;60.80;;;;;;5014336;28;20049;-38
2022/10/01 10:43:26;;;;;;;0.90;0.70;;;20.70;60.80;;;;;;5015740;28;19921;-36
2022/10/01 10:45:55;;;;;;;1.00;0.73;;;20.70;60.80;;;;;;5016522;28;20066;-37
2022/10/01 10:48:38;;;;;;;0.98;0.60;;;20.70;60.80;;;;;;5012960;28;20427;-38
2022/10/01 10:51:04;;;;;;;0.88;0.60;;;20.70;61.00;;;;;;5015387;28;20033;-36
2022/10/01 10:53:40;;;;;;;0.80;0.53;;;20.70;60.90;;;;;;5020358;28;20561;-37
2022/10/01 10:56:12;;;;;;;0.77;0.50;;;20.70;60.90;;;;;;5024605;28;20050;-37
2022/10/01 10:58:41;;;;;;;0.50;0.50;;;20.70;61.00;;;;;;5022651;28;20069;-37
2022/10/01 11:01:16;;;;;;;1.08;0.60;;;20.60;60.90;;;;;;5021719;28;20065;-38
2022/10/01 11:03:47;;;;;;;0.73;0.60;;;20.60;61.60;;;;;;5038445;28;20101;-37
2022/10/01 11:06:14;;;;;;;0.93;0.60;;;20.60;60.90;;;;;;5015496;28;20030;-37
2022/10/01 11:08:40;;;;;;;0.93;0.50;;;20.60;60.90;;;;;;5037704;28;20026;-37
2022/10/01 11:11:19;;;;;;;0.88;0.52;;;20.60;60.90;;;;;;5026958;28;20113;-38
2022/10/01 11:14:07;;;;;;;0.65;0.50;;;20.60;60.90;;;;;;5040225;28;20032;-38
2022/10/01 11:16:45;;;;;;;;;;;20.60;61.00;;;;;;5018714;28;20052;-37
2022/10/01 11:19:30;;;;;;;1.00;0.80;;;20.60;60.90;;;;;;5013602;28;19921;-38
2022/10/01 11:22:06;;;;;;;0.70;0.60;;;20.50;61.00;;;;;;5031841;28;20038;-36
2022/10/01 11:24:51;;;;;;;0.50;0.50;;;20.50;61.00;;;;;;5012557;28;20026;-37
2022/10/01 11:27:39;;;;;;;0.93;0.50;;;20.50;61.00;;;;;;5013548;28;20026;-37
2022/10/01 11:30:24;;;;;;;0.77;0.60;;;20.50;61.00;;;;;;5012699;28;20069;-37
2022/10/01 11:33:12;;;;;;;0.63;0.52;;;20.50;61.00;;;;;;5014824;28;20163;-37
2022/10/01 11:35:41;;;;;;;0.60;0.50;;;20.50;61.10;;;;;;5015236;28;20034;-37
2022/10/01 11:38:19;;;;;;;0.88;0.68;;;20.50;61.10;;;;;;5014389;28;20029;-37
2022/10/01 11:40:50;;;;;;;0.63;0.50;;;20.40;61.00;;;;;;5019277;28;20045;-37
2022/10/01 11:43:25;;;;;;;0.93;0.60;;;20.40;61.00;;;;;;5016626;28;20022;-37
2022/10/01 11:45:59;;;;;;;0.60;0.57;;;20.40;61.00;;;;;;5015802;28;20056;-37
2022/10/01 11:48:37;;;;;;;0.70;0.52;;;20.40;61.10;;;;;;5017262;28;20029;-36
2022/10/01 11:51:11;;;;;;;0.55;0.55;;;20.40;61.10;;;;;;5014483;28;20034;-37
2022/10/01 11:53:55;;;;;;;0.50;0.50;;;20.40;61.10;;;;;;5014188;28;20098;-36
2022/10/01 11:59:23;;;;;;;0.80;0.60;;;20.40;61.10;;;;;;5016286;28;20084;-37
2022/10/01 12:01:54;;;;;;;1.85;0.55;;;20.30;61.90;;;;;;5015564;28;20029;-37
2022/10/01 12:04:48;;;;;;;0.93;0.57;;;20.30;61.10;;;;;;5016900;28;20518;-36
2022/10/01 12:07:19;;;;;;;0.68;0.40;;;20.30;61.10;;;;;;5017623;28;20530;-40
2022/10/01 12:10:10;;;;;;;0.80;0.70;;;20.30;61.20;;;;;;5017120;28;20026;-38
2022/10/01 12:13:03;;;;;;;0.93;0.60;;;20.30;61.30;;;;;;5017282;28;20414;-38
2022/10/01 12:15:39;;;;;;;2.08;0.60;;;20.30;61.40;;;;;;5017550;28;20827;-37
2022/10/01 12:18:18;;;;;;;0.75;0.60;;;20.30;61.40;;;;;;5017100;28;20049;-37
2022/10/01 12:21:06;;;;;;;0.60;0.60;;;20.30;61.40;;;;;;4950777;29;20063;-37
2022/10/01 12:23:48;;;;;;;0.70;0.52;;;20.30;61.40;;;;;;4939640;29;20040;-42
2022/10/01 12:26:33;;;;;;;0.63;0.50;;;20.30;61.60;;;;;;4935730;29;20044;-51
2022/10/01 12:29:32;;;;;;;0.80;0.60;;;20.20;61.50;;;;;;4944015;29;20399;-52
2022/10/01 12:32:13;;;;;;;1.20;0.57;;;20.20;61.60;;;;;;4943005;29;20036;-50
2022/10/01 12:34:58;;;;;;;1.50;0.50;;;20.20;61.50;;;;;;4922342;29;20122;-54
2022/10/01 12:37:43;;;;;;;1.10;0.60;;;20.20;61.60;;;;;;4942989;29;20599;-45
2022/10/01 12:40:30;;;;;;;0.60;0.60;;;20.20;61.90;;;;;;4944628;29;20875;-51
2022/10/01 12:43:26;;;;;;;5.00;0.63;;;20.20;62.00;;;;;;4942199;29;20059;-47
2022/10/01 12:46:24;;;;;;;2.58;0.70;;;20.20;62.20;;;;;;4940199;29;20050;-51
2022/10/01 12:49:23;;;;;;;2.00;0.60;;;20.20;62.50;;;;;;4940696;29;20646;-52
2022/10/01 12:52:04;;;;;;;8.95;1.00;;;20.20;62.70;;;;;;4937809;28;20055;-55
2022/10/01 12:54:50;;;;;;;4.45;0.90;;;20.20;63.10;;;;;;4934283;29;20027;-59
2022/10/01 12:57:31;;;;;;;11.35;1.15;;;20.20;63.30;;;;;;4950602;28;20032;-51
2022/10/01 13:00:06;;;;;;;9.50;1.23;;;20.20;63.30;;;;;;5013307;28;20108;-48
2022/10/01 13:02:38;;;;;;;9.40;1.05;;;20.20;63.40;;;;;;5014346;28;20026;-56
2022/10/01 13:05:39;;;;;;;6.72;1.13;;;20.20;63.60;;;;;;5016165;28;20044;-59
2022/10/01 13:08:26;;;;;;;8.18;1.52;;;20.20;63.80;;;;;;5040812;28;20034;-58
2022/10/01 13:11:19;;;;;;;6.63;1.15;;;20.30;63.80;;;;;;5014129;28;20030;-58
2022/10/01 13:13:49;;;;;;;7.18;1.30;;;20.30;63.80;;;;;;5014527;28;20030;-52
2022/10/01 13:16:19;;;;;;;11.85;1.40;;;20.30;63.60;;;;;;5013094;28;20044;-61